createdAt,value
2022-12-08T00:01:57.657Z,64.18
2022-12-08T00:04:26.055Z,57.80
2022-12-08T00:07:12.837Z,64.57
2022-12-08T00:09:42.484Z,66.05
2022-12-08T00:12:17.717Z,63.80
2022-12-08T00:14:48.392Z,65.15
2022-12-08T00:17:17.399Z,64.63
2022-12-08T00:19:45.738Z,59.83
2022-12-08T00:22:15.198Z,65.65
2022-12-08T00:24:45.653Z,59.72
2022-12-08T00:27:18.102Z,60.35
2022-12-08T00:29:46.777Z,57.30
2022-12-08T00:32:15.074Z,56.33
2022-12-08T00:34:43.297Z,55.47
2022-12-08T00:37:11.478Z,62.35
2022-12-08T00:39:39.696Z,61.25
2022-12-08T00:42:13.871Z,53.58
2022-12-08T00:44:46.244Z,54.97
2022-12-08T00:47:14.907Z,56.03
2022-12-08T00:49:43.168Z,49.63
2022-12-08T00:52:12.704Z,50.08
2022-12-08T00:54:41.082Z,52.13
2022-12-08T00:57:09.352Z,54.90
2022-12-08T00:59:38.870Z,56.17
2022-12-08T01:02:07.522Z,49.42
2022-12-08T01:04:35.693Z,54.47
2022-12-08T01:07:03.921Z,56.35
2022-12-08T01:09:32.721Z,58.78
2022-12-08T01:12:01.019Z,57.30
2022-12-08T01:14:29.174Z,54.63
2022-12-08T01:16:57.377Z,58.35
2022-12-08T01:19:25.757Z,64.45
2022-12-08T01:21:54.062Z,57.53
2022-12-08T01:24:22.335Z,56.33
2022-12-08T01:26:51.697Z,61.17
2022-12-08T01:29:19.978Z,60.45
2022-12-08T01:31:48.163Z,56.10
2022-12-08T01:34:16.346Z,58.15
2022-12-08T01:36:44.742Z,51.17
2022-12-08T01:39:18.792Z,61.83
2022-12-08T01:41:47.978Z,63.33
2022-12-08T01:44:16.204Z,56.38
2022-12-08T01:46:48.519Z,56.38
2022-12-08T01:49:21.117Z,62.00
2022-12-08T01:52:19.870Z,54.75
2022-12-08T01:55:03.621Z,60.88
2022-12-08T01:57:43.089Z,54.15
2022-12-08T02:00:15.047Z,54.67
2022-12-08T02:03:04.772Z,51.53
2022-12-08T02:05:36.025Z,44.47
2022-12-08T02:08:09.086Z,46.05
2022-12-08T02:13:09.762Z,47.10
2022-12-08T02:15:49.537Z,50.72
2022-12-08T02:18:39.120Z,53.20
2022-12-08T02:21:21.118Z,49.75
2022-12-08T02:24:07.808Z,40.55
2022-12-08T02:27:16.958Z,44.75
2022-12-08T02:29:50.865Z,40.33
2022-12-08T02:32:21.859Z,37.67
2022-12-08T02:35:02.987Z,37.60
2022-12-08T02:37:48.402Z,36.25
2022-12-08T02:40:49.916Z,39.17
2022-12-08T02:43:33.046Z,33.85
2022-12-08T02:46:08.303Z,35.72
2022-12-08T02:48:36.808Z,34.90
2022-12-08T02:51:06.127Z,32.35
2022-12-08T02:53:36.282Z,32.65
2022-12-08T02:56:31.657Z,30.20
2022-12-08T02:59:05.517Z,37.15
2022-12-08T03:02:01.522Z,34.83
2022-12-08T03:05:02.842Z,39.47
2022-12-08T03:07:47.564Z,41.05
2022-12-08T03:10:54.011Z,43.22
2022-12-08T03:14:00.970Z,40.17
2022-12-08T03:16:32.250Z,37.60
2022-12-08T03:19:13.820Z,37.03
2022-12-08T03:21:44.429Z,35.05
2022-12-08T03:24:15.388Z,38.92
2022-12-08T03:27:00.718Z,41.17
2022-12-08T03:29:29.558Z,38.30
2022-12-08T03:32:09.189Z,35.38
2022-12-08T03:34:40.245Z,33.45
2022-12-08T03:37:08.736Z,32.13
2022-12-08T03:39:36.893Z,35.33
2022-12-08T03:42:05.174Z,35.72
2022-12-08T03:44:33.356Z,40.55
2022-12-08T03:47:01.532Z,33.80
2022-12-08T03:49:29.717Z,35.38
2022-12-08T03:51:57.985Z,36.03
2022-12-08T03:54:26.234Z,36.63
2022-12-08T03:56:54.486Z,35.58
2022-12-08T03:59:22.693Z,44.70
2022-12-08T04:01:50.946Z,45.90
2022-12-08T04:04:19.214Z,38.65
2022-12-08T04:06:47.593Z,37.58
2022-12-08T04:09:15.925Z,39.53
2022-12-08T04:11:44.251Z,38.67
2022-12-08T04:14:12.480Z,45.97
2022-12-08T04:16:40.973Z,41.13
2022-12-08T04:19:09.600Z,43.35
2022-12-08T04:21:37.865Z,43.35
2022-12-08T04:24:06.354Z,38.22
2022-12-08T04:26:34.567Z,42.55
2022-12-08T04:29:02.791Z,41.40
2022-12-08T04:31:31.126Z,40.85
2022-12-08T04:33:59.355Z,41.63
2022-12-08T04:36:27.602Z,39.50
2022-12-08T04:38:55.768Z,36.95
2022-12-08T04:41:23.968Z,44.00
2022-12-08T04:43:54.956Z,39.72
2022-12-08T04:46:23.204Z,34.03
2022-12-08T04:48:51.451Z,38.22
2022-12-08T04:51:21.313Z,34.13
2022-12-08T04:53:49.547Z,33.15
2022-12-08T04:56:19.415Z,33.60
2022-12-08T04:58:47.940Z,36.88
2022-12-08T05:01:16.481Z,35.95
2022-12-08T05:03:44.692Z,35.40
2022-12-08T05:06:16.247Z,39.72
2022-12-08T05:08:44.883Z,33.00
2022-12-08T05:11:14.156Z,32.85
2022-12-08T05:13:42.293Z,33.90
2022-12-08T05:16:13.748Z,38.95
2022-12-08T05:18:42.802Z,31.50
2022-12-08T05:21:11.158Z,37.20
2022-12-08T05:23:39.365Z,34.03
2022-12-08T05:26:07.694Z,33.72
2022-12-08T05:28:43.963Z,36.08
2022-12-08T05:31:14.082Z,32.35
2022-12-08T05:33:43.392Z,32.78
2022-12-08T05:36:13.958Z,34.13
2022-12-08T05:38:43.138Z,31.35
2022-12-08T05:41:15.380Z,31.45
2022-12-08T05:43:43.825Z,32.08
2022-12-08T05:46:12.499Z,30.25
2022-12-08T05:48:40.835Z,32.13
2022-12-08T05:51:19.724Z,28.08
2022-12-08T05:53:49.545Z,30.42
2022-12-08T05:56:18.924Z,26.92
2022-12-08T05:58:47.751Z,32.35
2022-12-08T06:01:21.601Z,29.17
2022-12-08T06:03:50.102Z,26.45
2022-12-08T06:06:18.444Z,25.23
2022-12-08T06:08:46.780Z,26.08
2022-12-08T06:11:24.858Z,28.55
2022-12-08T06:13:54.508Z,25.73
2022-12-08T06:16:26.609Z,29.50
2022-12-08T06:18:55.671Z,19.83
2022-12-08T06:21:24.350Z,29.55
2022-12-08T06:23:54.522Z,30.25
2022-12-08T06:26:23.194Z,36.45
2022-12-08T06:28:51.724Z,32.60
2022-12-08T06:31:29.204Z,29.08
2022-12-08T06:33:57.812Z,29.83
2022-12-08T06:36:28.224Z,31.95
2022-12-08T06:38:57.051Z,32.80
2022-12-08T06:41:25.668Z,30.33
2022-12-08T06:43:57.374Z,31.42
2022-12-08T06:46:25.756Z,28.75
2022-12-08T06:48:54.374Z,30.88
2022-12-08T06:51:23.558Z,27.58
2022-12-08T06:53:51.795Z,27.00
2022-12-08T06:56:20.519Z,29.67
2022-12-08T06:58:52.333Z,27.75
2022-12-08T07:01:21.453Z,29.40
2022-12-08T07:03:52.305Z,30.38
2022-12-08T07:06:23.929Z,28.80
2022-12-08T07:08:52.138Z,29.35
2022-12-08T07:11:22.184Z,28.20
2022-12-08T07:13:51.472Z,33.40
2022-12-08T07:16:19.837Z,32.25
2022-12-08T07:18:48.072Z,26.25
2022-12-08T07:21:17.005Z,27.55
2022-12-08T07:23:55.941Z,29.02
2022-12-08T07:26:26.893Z,27.80
2022-12-08T07:28:55.158Z,31.55
2022-12-08T07:31:25.457Z,31.83
2022-12-08T07:33:54.033Z,28.15
2022-12-08T07:36:23.104Z,28.98
2022-12-08T07:38:53.249Z,29.38
2022-12-08T07:41:26.372Z,27.98
2022-12-08T07:43:56.107Z,29.95
2022-12-08T07:46:25.425Z,27.55
2022-12-08T07:48:57.067Z,30.45
2022-12-08T07:51:28.381Z,28.55
2022-12-08T07:53:56.540Z,28.65
2022-12-08T07:56:25.175Z,26.45
2022-12-08T07:58:53.416Z,34.38
2022-12-08T08:01:25.158Z,41.47
2022-12-08T08:03:55.477Z,40.90
2022-12-08T08:06:24.652Z,44.92
2022-12-08T08:08:53.039Z,42.55
2022-12-08T08:11:21.913Z,39.95
2022-12-08T08:13:51.096Z,35.30
2022-12-08T08:16:20.361Z,36.22
2022-12-08T08:18:50.129Z,35.17
2022-12-08T08:21:44.301Z,36.80
2022-12-08T08:24:08.072Z,38.47
2022-12-08T08:26:37.366Z,33.30
2022-12-08T08:29:05.576Z,38.17
2022-12-08T08:31:33.984Z,41.42
2022-12-08T08:34:06.388Z,34.58
2022-12-08T08:36:35.453Z,34.10
2022-12-08T08:39:04.410Z,32.42
2022-12-08T08:41:32.760Z,29.92
2022-12-08T08:44:00.979Z,30.15
2022-12-08T08:46:29.282Z,30.42
2022-12-08T08:48:58.226Z,30.33
2022-12-08T08:51:26.486Z,33.25
2022-12-08T08:53:54.629Z,29.10
2022-12-08T08:56:22.960Z,34.70
2022-12-08T08:58:52.941Z,48.60
2022-12-08T09:01:28.350Z,73.07
2022-12-08T09:03:59.456Z,78.75
2022-12-08T09:06:30.694Z,68.15
2022-12-08T09:08:59.009Z,51.63
2022-12-08T09:11:27.259Z,42.40
2022-12-08T09:13:55.723Z,28.77
2022-12-08T09:16:24.638Z,26.05
2022-12-08T09:18:53.006Z,26.30
2022-12-08T09:21:25.775Z,26.70
2022-12-08T09:23:56.908Z,28.30
2022-12-08T09:26:28.140Z,23.88
2022-12-08T09:28:58.078Z,26.20
2022-12-08T09:31:26.508Z,29.83
2022-12-08T09:33:55.853Z,28.33
2022-12-08T09:36:24.147Z,29.77
2022-12-08T09:38:54.643Z,24.60
2022-12-08T09:41:49.835Z,26.05
2022-12-08T09:44:46.970Z,21.30
2022-12-08T09:47:27.482Z,23.50
2022-12-08T09:50:16.035Z,27.88
2022-12-08T09:52:55.717Z,26.10
2022-12-08T09:55:37.035Z,26.35
2022-12-08T09:58:13.308Z,27.67
2022-12-08T10:00:44.561Z,25.10
2022-12-08T10:03:16.693Z,31.60
2022-12-08T10:06:13.389Z,31.17
2022-12-08T10:09:12.472Z,23.67
2022-12-08T10:11:47.286Z,29.65
2022-12-08T10:14:30.755Z,27.48
2022-12-08T10:17:08.798Z,29.05
2022-12-08T10:19:39.283Z,24.35
2022-12-08T10:22:23.629Z,27.02
2022-12-08T10:25:00.126Z,24.65
2022-12-08T10:27:29.059Z,25.67
2022-12-08T10:29:58.814Z,28.77
2022-12-08T10:32:34.238Z,24.00
2022-12-08T10:35:09.366Z,25.73
2022-12-08T10:37:37.968Z,29.92
2022-12-08T10:40:16.560Z,28.35
2022-12-08T10:42:48.616Z,29.20
2022-12-08T10:45:25.822Z,25.20
2022-12-08T10:48:03.894Z,24.65
2022-12-08T10:50:41.556Z,25.60
2022-12-08T10:53:09.729Z,26.05
2022-12-08T10:56:04.311Z,24.05
2022-12-08T10:58:36.849Z,25.73
2022-12-08T11:01:17.074Z,22.55
2022-12-08T11:03:56.822Z,23.77
2022-12-08T11:06:37.637Z,21.60
2022-12-08T11:09:17.755Z,28.08
2022-12-08T11:11:52.107Z,23.88
2022-12-08T11:14:23.130Z,22.02
2022-12-08T11:17:13.989Z,19.63
2022-12-08T11:19:48.257Z,24.92
2022-12-08T11:22:32.383Z,24.63
2022-12-08T11:25:18.853Z,21.90
2022-12-08T11:27:53.001Z,19.88
2022-12-08T11:30:24.218Z,21.85
2022-12-08T11:33:06.121Z,21.63
2022-12-08T11:35:44.568Z,22.35
2022-12-08T11:38:22.877Z,22.92
2022-12-08T11:41:16.477Z,22.40
2022-12-08T11:43:56.714Z,26.60
2022-12-08T11:46:52.333Z,24.20
2022-12-08T11:49:37.386Z,25.55
2022-12-08T11:52:14.828Z,24.67
2022-12-08T11:54:56.405Z,25.42
2022-12-08T11:57:27.293Z,23.88
2022-12-08T11:59:58.117Z,21.02
2022-12-08T12:02:34.975Z,26.17
2022-12-08T12:08:43.829Z,26.55
2022-12-08T12:11:50.736Z,28.42
2022-12-08T12:14:37.655Z,26.80
2022-12-08T12:17:34.885Z,27.52
2022-12-08T12:20:16.010Z,30.40
2022-12-08T12:22:48.629Z,32.05
2022-12-08T12:25:23.612Z,26.95
2022-12-08T12:27:57.479Z,33.30
2022-12-08T12:30:28.610Z,28.17
2022-12-08T12:33:01.912Z,31.77
2022-12-08T12:38:55.399Z,32.13
2022-12-08T12:41:41.617Z,31.35
2022-12-08T12:44:12.870Z,34.35
2022-12-08T12:46:53.287Z,30.58
2022-12-08T12:49:39.731Z,30.42
2022-12-08T12:52:16.830Z,29.73
2022-12-08T12:54:54.529Z,36.53
2022-12-08T12:57:37.537Z,26.90
2022-12-08T13:00:07.788Z,30.15
2022-12-08T13:02:48.892Z,29.08
2022-12-08T13:05:34.941Z,28.98
2022-12-08T13:08:08.414Z,31.52
2022-12-08T13:10:39.888Z,37.92
2022-12-08T13:13:20.015Z,29.75
2022-12-08T13:15:57.609Z,32.15
2022-12-08T13:18:29.127Z,30.27
2022-12-08T13:21:16.084Z,32.75
2022-12-08T13:24:05.601Z,35.05
2022-12-08T13:26:43.317Z,32.00
2022-12-08T13:29:25.454Z,33.83
2022-12-08T13:32:01.300Z,35.45
2022-12-08T13:34:56.124Z,33.10
2022-12-08T13:37:52.422Z,34.78
2022-12-08T13:40:30.241Z,32.58
2022-12-08T13:43:26.562Z,32.20
2022-12-08T13:50:32.447Z,31.20
2022-12-08T13:55:35.535Z,35.33
2022-12-08T13:57:35.832Z,29.88
2022-12-08T14:00:30.390Z,32.10
2022-12-08T14:03:02.288Z,31.52
2022-12-08T14:06:11.089Z,31.95
2022-12-08T14:08:59.273Z,30.27
2022-12-08T14:11:37.998Z,31.00
2022-12-08T14:15:01.324Z,29.08
2022-12-08T14:17:23.008Z,29.02
2022-12-08T14:20:04.421Z,29.20
2022-12-08T14:22:38.026Z,34.47
2022-12-08T14:25:14.186Z,33.45
2022-12-08T14:27:42.697Z,32.45
2022-12-08T14:30:14.265Z,31.48
2022-12-08T14:32:48.486Z,28.88
2022-12-08T14:35:29.276Z,31.58
2022-12-08T14:38:01.120Z,31.55
2022-12-08T14:40:41.567Z,32.22
2022-12-08T14:43:09.731Z,35.10
2022-12-08T14:45:43.946Z,37.75
2022-12-08T14:48:30.802Z,31.52
2022-12-08T14:51:02.127Z,30.90
2022-12-08T14:53:58.475Z,30.30
2022-12-08T14:56:40.430Z,34.08
2022-12-08T14:59:17.307Z,33.67
2022-12-08T15:01:50.184Z,33.05
2022-12-08T15:04:28.609Z,33.58
2022-12-08T15:07:16.359Z,34.08
2022-12-08T15:09:48.980Z,32.72
2022-12-08T15:12:27.002Z,31.58
2022-12-08T15:14:55.620Z,34.33
2022-12-08T15:17:41.274Z,35.95
2022-12-08T15:20:35.889Z,38.67
2022-12-08T15:23:05.181Z,35.05
2022-12-08T15:25:33.564Z,43.33
2022-12-08T15:28:03.173Z,35.47
2022-12-08T15:30:31.473Z,31.65
2022-12-08T15:33:01.978Z,43.03
2022-12-08T15:35:30.377Z,44.22
2022-12-08T15:37:58.634Z,37.15
2022-12-08T15:40:27.382Z,42.40
2022-12-08T15:42:55.615Z,36.70
2022-12-08T15:45:30.727Z,42.80
2022-12-08T15:47:58.902Z,47.40
2022-12-08T15:53:20.731Z,49.70
2022-12-08T15:56:26.313Z,46.80
2022-12-08T15:58:57.304Z,43.90
2022-12-08T16:01:29.213Z,49.72
2022-12-08T16:07:21.012Z,43.88
2022-12-08T16:09:51.103Z,50.20
2022-12-08T16:18:29.497Z,44.75
2022-12-08T16:21:09.669Z,39.17
2022-12-08T16:23:43.504Z,43.70
2022-12-08T16:27:01.214Z,44.22
2022-12-08T16:29:15.188Z,43.78
2022-12-08T16:32:25.687Z,46.97
2022-12-08T16:34:55.074Z,47.40
2022-12-08T16:37:26.154Z,43.88
2022-12-08T16:39:57.115Z,43.45
2022-12-08T16:42:40.996Z,44.33
2022-12-08T16:45:24.344Z,37.80
2022-12-08T16:47:58.158Z,41.60
2022-12-08T16:50:34.689Z,42.50
2022-12-08T16:53:06.854Z,35.50
2022-12-08T16:55:35.453Z,39.75
2022-12-08T16:58:03.750Z,43.65
2022-12-08T17:00:37.260Z,42.95
2022-12-08T17:03:08.161Z,36.17
2022-12-08T17:05:39.289Z,39.85
2022-12-08T17:08:08.065Z,38.75
2022-12-08T17:10:39.450Z,39.80
2022-12-08T17:13:08.177Z,39.10
2022-12-08T17:15:36.473Z,39.47
2022-12-08T17:18:06.797Z,36.42
2022-12-08T17:20:36.239Z,40.00
2022-12-08T17:23:04.417Z,33.05
2022-12-08T17:25:38.824Z,35.33
2022-12-08T17:28:09.836Z,38.75
2022-12-08T17:30:38.544Z,38.33
2022-12-08T17:33:07.217Z,40.78
2022-12-08T17:35:38.108Z,45.58
2022-12-08T17:38:06.219Z,50.30
2022-12-08T17:40:34.408Z,52.53
2022-12-08T17:43:02.643Z,58.17
2022-12-08T17:45:31.928Z,72.10
2022-12-08T17:48:00.131Z,67.93
2022-12-08T17:50:28.392Z,68.13
2022-12-08T17:52:56.552Z,70.90
2022-12-08T17:55:24.782Z,69.30
2022-12-08T17:57:53.004Z,69.35
2022-12-08T18:00:22.450Z,61.28
2022-12-08T18:02:50.751Z,58.55
2022-12-08T18:05:19.395Z,66.38
2022-12-08T18:07:47.651Z,62.58
2022-12-08T18:10:16.620Z,61.33
2022-12-08T18:12:45.509Z,66.50
2022-12-08T18:15:17.480Z,61.95
2022-12-08T18:17:47.179Z,54.70
2022-12-08T18:20:15.454Z,60.13
2022-12-08T18:22:43.937Z,52.55
2022-12-08T18:25:12.897Z,52.03
2022-12-08T18:27:43.219Z,49.38
2022-12-08T18:30:18.054Z,49.33
2022-12-08T18:32:47.058Z,47.47
2022-12-08T18:35:15.390Z,43.42
2022-12-08T18:37:43.661Z,43.65
2022-12-08T18:40:12.926Z,45.95
2022-12-08T18:42:41.227Z,42.80
2022-12-08T18:45:10.025Z,42.05
2022-12-08T18:47:40.232Z,43.80
2022-12-08T18:50:11.082Z,41.25
2022-12-08T18:52:39.604Z,45.60
2022-12-08T18:55:11.680Z,49.75
2022-12-08T18:57:42.818Z,40.70
2022-12-08T19:00:17.709Z,42.03
2022-12-08T19:02:46.127Z,34.67
2022-12-08T19:05:14.916Z,41.22
2022-12-08T19:07:43.301Z,39.17
2022-12-08T19:10:11.994Z,40.53
2022-12-08T19:12:40.370Z,37.47
2022-12-08T19:15:09.473Z,37.33
2022-12-08T19:17:37.816Z,39.38
2022-12-08T19:20:07.057Z,45.95
2022-12-08T19:22:35.545Z,48.97
2022-12-08T19:25:04.536Z,45.83
2022-12-08T19:27:34.192Z,55.25
2022-12-08T19:30:02.435Z,53.60
2022-12-08T19:32:31.100Z,56.13
2022-12-08T19:34:59.383Z,54.78
2022-12-08T19:37:27.601Z,57.60
2022-12-08T19:40:14.552Z,60.13
2022-12-08T19:43:01.214Z,54.85
2022-12-08T19:45:29.834Z,61.03
2022-12-08T19:47:58.130Z,57.33
2022-12-08T19:50:36.929Z,60.92
2022-12-08T19:53:12.755Z,60.15
2022-12-08T19:55:42.347Z,57.35
2022-12-08T19:58:11.312Z,60.33
2022-12-08T20:00:40.479Z,56.25
2022-12-08T20:03:08.844Z,58.63
2022-12-08T20:05:39.706Z,49.17
2022-12-08T20:08:07.980Z,53.97
2022-12-08T20:10:39.851Z,53.78
2022-12-08T20:13:27.932Z,53.70
2022-12-08T20:15:56.458Z,56.00
2022-12-08T20:18:25.509Z,53.30
2022-12-08T20:20:53.792Z,52.97
2022-12-08T20:23:22.048Z,50.10
2022-12-08T20:25:51.197Z,48.42
2022-12-08T20:28:19.414Z,49.05
2022-12-08T20:30:49.195Z,49.00
2022-12-08T20:33:19.165Z,51.92
2022-12-08T20:35:47.778Z,46.72
2022-12-08T20:38:16.217Z,45.03
2022-12-08T20:40:46.386Z,38.65
2022-12-08T20:43:14.858Z,49.92
2022-12-08T20:45:43.527Z,43.08
2022-12-08T20:48:12.167Z,44.38
2022-12-08T20:50:40.939Z,39.08
2022-12-08T20:53:09.523Z,38.05
2022-12-08T20:55:42.348Z,44.95
2022-12-08T20:58:10.862Z,46.38
2022-12-08T21:00:39.924Z,47.25
2022-12-08T21:03:08.319Z,50.00
2022-12-08T21:05:39.078Z,53.40
2022-12-08T21:08:07.969Z,62.15
2022-12-08T21:10:42.208Z,63.58
2022-12-08T21:13:12.631Z,56.50
2022-12-08T21:15:46.580Z,56.33
2022-12-08T21:18:16.325Z,60.75
2022-12-08T21:20:45.153Z,59.78
2022-12-08T21:23:13.530Z,57.42
2022-12-08T21:25:47.277Z,61.78
2022-12-08T21:28:15.713Z,54.38
2022-12-08T21:30:44.716Z,62.38
2022-12-08T21:33:12.936Z,58.95
2022-12-08T21:35:41.267Z,56.65
2022-12-08T21:38:09.984Z,64.18
2022-12-08T21:40:38.418Z,68.22
2022-12-08T21:43:06.661Z,75.18
2022-12-08T21:45:35.357Z,77.82
2022-12-08T21:48:10.950Z,79.78
2022-12-08T21:50:39.799Z,76.55
2022-12-08T21:53:08.072Z,73.65
2022-12-08T21:55:36.308Z,79.78
2022-12-08T21:58:08.733Z,74.35
2022-12-08T22:00:37.157Z,76.27
2022-12-08T22:03:06.608Z,75.75
2022-12-08T22:05:36.623Z,73.90
2022-12-08T22:08:05.119Z,83.38
2022-12-08T22:10:33.602Z,78.25
2022-12-08T22:13:01.841Z,72.68
2022-12-08T22:15:31.136Z,78.05
2022-12-08T22:17:59.502Z,81.97
2022-12-08T22:20:28.831Z,72.38
2022-12-08T22:22:57.095Z,69.75
2022-12-08T22:25:25.409Z,66.20
2022-12-08T22:27:53.596Z,70.53
2022-12-08T22:30:22.108Z,68.25
2022-12-08T22:32:50.489Z,70.88
2022-12-08T22:35:18.746Z,70.45
2022-12-08T22:37:51.649Z,71.60
2022-12-08T22:40:20.160Z,72.32
2022-12-08T22:42:48.480Z,75.60
2022-12-08T22:45:16.735Z,75.32
2022-12-08T22:47:45.021Z,68.40
2022-12-08T22:50:13.272Z,64.57
2022-12-08T22:52:41.658Z,68.68
2022-12-08T22:55:10.164Z,67.45
2022-12-08T22:57:38.440Z,66.18
2022-12-08T23:00:08.017Z,73.35
2022-12-08T23:02:38.250Z,70.85
2022-12-08T23:05:07.009Z,64.43
2022-12-08T23:07:35.253Z,69.00
2022-12-08T23:10:04.184Z,67.47
2022-12-08T23:12:33.257Z,64.97
2022-12-08T23:15:04.772Z,64.88
2022-12-08T23:17:33.217Z,65.30
2022-12-08T23:20:01.803Z,68.40
2022-12-08T23:22:29.985Z,64.20
2022-12-08T23:24:58.222Z,69.20
2022-12-08T23:27:26.665Z,74.75
2022-12-08T23:29:58.140Z,66.18
2022-12-08T23:32:26.731Z,69.57
2022-12-08T23:34:55.205Z,71.68
2022-12-08T23:37:23.619Z,66.85
2022-12-08T23:39:51.909Z,71.78
2022-12-08T23:42:20.190Z,67.78
2022-12-08T23:44:48.551Z,63.95
2022-12-08T23:47:16.949Z,62.25
2022-12-08T23:49:45.377Z,72.90
2022-12-08T23:52:14.703Z,65.93
2022-12-08T23:54:45.269Z,77.22
2022-12-08T23:57:13.464Z,70.00
2022-12-08T23:59:42.236Z,72.90
